Time;durP1;ratioP1;P1;durP2;ratioP2;P2;SDS_P1;SDS_P2;PMS_P1;PMS_P2;Temp;Humidity;BMP_temperature;BMP_pressure;BME280_temperature;BME280_humidity;BME280_pressure;Samples;Min_cycle;Max_cycle;Signal;HPM_P1;HPM_P2
2020/12/18 00:00:05;;;;;;;22.43;10.93;;;8.80;99.90;;;;;;4939717;29;20196;-86
2020/12/18 00:02:30;;;;;;;21.73;10.73;;;8.90;99.90;;;;;;4956803;29;20276;-86
2020/12/18 00:04:56;;;;;;;27.93;12.33;;;8.70;99.90;;;;;;4939752;29;20695;-86
2020/12/18 00:07:23;;;;;;;22.00;10.77;;;8.80;99.90;;;;;;4939507;29;20174;-86
2020/12/18 00:09:49;;;;;;;27.37;10.53;;;8.80;99.90;;;;;;4938012;29;20251;-86
2020/12/18 00:12:14;;;;;;;21.20;10.40;;;8.90;99.90;;;;;;4924771;29;20225;-87
2020/12/18 00:14:40;;;;;;;20.83;9.37;;;8.80;99.90;;;;;;4920422;29;20179;-86
2020/12/18 00:17:06;;;;;;;20.83;10.40;;;8.90;99.90;;;;;;4920381;29;20256;-87
2020/12/18 00:19:32;;;;;;;31.83;10.57;;;8.70;99.90;;;;;;4920549;29;20259;-88
2020/12/18 00:21:59;;;;;;;21.03;10.33;;;8.80;99.90;;;;;;4920363;29;20527;-87
2020/12/18 00:24:24;;;;;;;28.30;11.07;;;8.80;99.90;;;;;;4936981;29;20173;-88
2020/12/18 00:26:50;;;;;;;23.90;9.63;;;8.80;99.90;;;;;;4920295;29;20177;-88
2020/12/18 00:29:16;;;;;;;32.43;11.70;;;8.70;99.90;;;;;;4920559;29;20659;-87
2020/12/18 00:31:42;;;;;;;33.47;10.00;;;8.70;99.90;;;;;;4920382;29;20188;-87
2020/12/18 00:34:08;;;;;;;30.63;10.47;;;8.70;99.90;;;;;;4920410;29;20178;-88
2020/12/18 00:36:33;;;;;;;21.30;10.40;;;8.60;99.90;;;;;;4919968;29;20177;-87
2020/12/18 00:38:59;;;;;;;26.33;10.33;;;8.60;99.90;;;;;;4933081;29;20268;-87
2020/12/18 00:41:24;;;;;;;31.23;11.20;;;8.60;99.90;;;;;;4939030;29;20164;-87
2020/12/18 00:43:50;;;;;;;26.87;10.43;;;8.70;99.90;;;;;;4939028;29;20559;-87
2020/12/18 00:46:16;;;;;;;33.67;10.80;;;8.70;99.90;;;;;;4955826;28;20255;-86
2020/12/18 00:48:42;;;;;;;22.70;9.97;;;8.60;99.90;;;;;;4938899;29;20171;-86
2020/12/18 00:51:08;;;;;;;28.87;10.47;;;8.60;99.90;;;;;;4938720;29;20180;-86
2020/12/18 00:53:35;;;;;;;31.57;11.43;;;8.70;99.90;;;;;;4938426;29;20175;-86
2020/12/18 00:56:07;;;;;;;25.70;11.70;;;8.60;99.90;;;;;;4956066;29;20172;-86
2020/12/18 00:58:32;;;;;;;20.80;9.60;;;8.70;99.90;;;;;;4938699;29;20206;-86
2020/12/18 01:00:58;;;;;;;34.70;10.73;;;8.60;99.90;;;;;;4956408;29;20250;-86
2020/12/18 01:03:24;;;;;;;24.90;10.07;;;8.60;99.90;;;;;;4938690;29;20258;-86
2020/12/18 01:05:49;;;;;;;33.27;10.87;;;8.60;99.90;;;;;;4938730;29;20164;-86
2020/12/18 01:08:15;;;;;;;37.10;11.20;;;8.60;99.90;;;;;;4936807;29;20168;-86
2020/12/18 01:10:42;;;;;;;31.73;11.83;;;8.60;99.90;;;;;;4938102;29;20236;-86
2020/12/18 01:13:08;;;;;;;30.07;10.50;;;8.50;99.90;;;;;;4938920;29;20176;-86
2020/12/18 01:15:34;;;;;;;30.67;11.77;;;8.50;99.90;;;;;;4938562;29;20172;-86
2020/12/18 01:17:59;;;;;;;33.03;11.87;;;8.50;99.90;;;;;;4955629;29;20224;-85
2020/12/18 01:20:25;;;;;;;28.93;11.00;;;8.50;99.90;;;;;;4938824;29;20168;-86
2020/12/18 01:22:50;;;;;;;35.30;11.50;;;8.40;99.90;;;;;;4955961;29;20168;-85
2020/12/18 01:25:16;;;;;;;32.37;11.53;;;8.40;99.90;;;;;;4938665;29;20629;-86
2020/12/18 01:27:41;;;;;;;26.77;10.80;;;8.40;99.90;;;;;;4955516;29;20567;-86
2020/12/18 01:30:07;;;;;;;32.80;10.87;;;8.40;99.90;;;;;;4938312;29;20168;-87
2020/12/18 01:32:33;;;;;;;28.87;11.17;;;8.40;99.90;;;;;;4938338;29;20194;-86
2020/12/18 01:34:58;;;;;;;26.63;11.30;;;8.40;99.90;;;;;;4938400;29;20172;-86
2020/12/18 01:37:24;;;;;;;26.83;10.70;;;8.40;99.90;;;;;;4940997;29;20204;-86
2020/12/18 01:39:53;;;;;;;37.33;11.23;;;8.40;99.90;;;;;;4940100;29;20760;-86
2020/12/18 01:42:18;;;;;;;24.13;10.93;;;8.30;99.90;;;;;;4941771;29;20176;-86
2020/12/18 01:44:44;;;;;;;24.73;10.33;;;8.40;99.90;;;;;;4942198;29;20599;-87
2020/12/18 01:47:23;;;;;;;24.90;9.93;;;8.40;99.90;;;;;;4941889;29;20273;-88
2020/12/18 01:49:49;;;;;;;31.83;9.30;;;8.30;99.90;;;;;;4942289;29;20271;-87
2020/12/18 01:52:15;;;;;;;26.67;9.93;;;8.30;99.90;;;;;;4942263;29;20619;-87
2020/12/18 01:54:41;;;;;;;27.70;10.30;;;8.30;99.90;;;;;;4942234;29;20175;-86
2020/12/18 01:57:07;;;;;;;23.90;9.07;;;8.30;99.90;;;;;;4941969;29;20223;-87
2020/12/18 01:59:33;;;;;;;29.40;10.17;;;8.40;99.90;;;;;;4941959;29;20187;-87
2020/12/18 02:02:00;;;;;;;14.33;7.93;;;8.40;99.90;;;;;;4959175;29;20168;-86
2020/12/18 02:04:26;;;;;;;25.53;8.60;;;8.40;99.90;;;;;;4941871;29;20263;-86
2020/12/18 02:06:55;;;;;;;22.50;8.13;;;8.30;99.90;;;;;;4959017;29;20597;-86
2020/12/18 02:09:21;;;;;;;21.50;8.33;;;8.30;99.90;;;;;;4940231;29;20176;-87
2020/12/18 02:11:47;;;;;;;20.60;8.30;;;8.40;99.90;;;;;;4923028;29;20239;-87
2020/12/18 02:14:13;;;;;;;24.27;8.07;;;8.50;99.90;;;;;;4939772;29;20184;-87
2020/12/18 02:16:40;;;;;;;18.10;7.67;;;8.50;99.90;;;;;;4922653;29;20172;-87
2020/12/18 02:19:09;;;;;;;27.73;7.80;;;8.60;99.90;;;;;;4939743;29;20644;-87
2020/12/18 02:21:38;;;;;;;19.03;7.60;;;8.50;99.90;;;;;;4922529;29;20187;-86
2020/12/18 02:24:04;;;;;;;28.80;8.53;;;8.50;99.90;;;;;;4922389;29;20272;-86
2020/12/18 02:26:30;;;;;;;21.87;6.80;;;8.50;99.90;;;;;;4940032;29;20200;-86
2020/12/18 02:28:55;;;;;;;17.33;7.13;;;8.50;99.90;;;;;;4939890;29;20672;-87
2020/12/18 02:31:21;;;;;;;19.57;6.83;;;8.50;99.90;;;;;;4939485;29;20169;-87
2020/12/18 02:33:49;;;;;;;19.83;7.33;;;8.60;99.90;;;;;;4939370;29;20176;-87
2020/12/18 02:36:25;;;;;;;19.47;6.53;;;8.60;99.90;;;;;;4921950;29;20181;-87
2020/12/18 02:38:50;;;;;;;30.60;8.17;;;8.70;99.90;;;;;;4923279;29;20196;-86
2020/12/18 02:41:16;;;;;;;23.47;7.97;;;8.60;99.90;;;;;;4922065;29;20624;-87
2020/12/18 02:43:41;;;;;;;18.80;7.57;;;8.60;99.90;;;;;;4922051;29;20195;-87
2020/12/18 02:46:07;;;;;;;22.33;8.10;;;8.60;99.90;;;;;;4939043;29;20200;-86
2020/12/18 02:48:33;;;;;;;21.63;7.47;;;8.60;99.90;;;;;;4938093;29;20625;-87
2020/12/18 02:50:58;;;;;;;20.70;6.87;;;8.60;99.90;;;;;;4922013;29;20211;-86
2020/12/18 02:53:24;;;;;;;16.93;7.33;;;8.50;99.90;;;;;;4921884;29;20212;-86
2020/12/18 02:55:49;;;;;;;22.00;7.53;;;8.50;99.90;;;;;;4939010;29;20165;-87
2020/12/18 02:58:18;;;;;;;23.10;7.63;;;8.50;99.90;;;;;;4921896;29;20287;-87
2020/12/18 03:00:45;;;;;;;24.33;7.60;;;8.50;99.90;;;;;;4939992;29;20184;-86
2020/12/18 03:03:11;;;;;;;26.57;7.97;;;8.50;99.90;;;;;;4921997;29;20219;-86
2020/12/18 03:05:36;;;;;;;20.37;8.07;;;8.40;99.90;;;;;;4921875;29;20204;-87
2020/12/18 03:08:05;;;;;;;25.80;7.63;;;8.50;99.90;;;;;;4921620;29;20177;-86
2020/12/18 03:10:31;;;;;;;23.43;8.03;;;8.60;99.90;;;;;;4921755;29;20519;-87
2020/12/18 03:12:56;;;;;;;25.27;8.53;;;8.50;99.90;;;;;;4921713;29;20169;-87
2020/12/18 03:15:22;;;;;;;27.80;9.13;;;8.60;99.90;;;;;;4921586;29;20169;-87
2020/12/18 03:17:48;;;;;;;35.30;9.67;;;8.60;99.90;;;;;;4921591;29;20240;-87
2020/12/18 03:20:14;;;;;;;23.93;8.03;;;8.70;99.90;;;;;;4921617;29;20172;-86
2020/12/18 03:22:40;;;;;;;28.07;9.13;;;8.60;99.90;;;;;;4921563;29;20235;-88
2020/12/18 03:25:06;;;;;;;26.97;10.07;;;8.50;99.90;;;;;;4938637;29;20165;-87
2020/12/18 03:27:32;;;;;;;32.93;9.63;;;8.50;99.90;;;;;;4921530;29;20177;-87
2020/12/18 03:29:57;;;;;;;25.83;8.83;;;8.50;99.90;;;;;;4921386;29;20171;-87
2020/12/18 03:32:23;;;;;;;31.47;8.90;;;8.50;99.90;;;;;;4934684;29;20192;-86
2020/12/18 03:34:51;;;;;;;25.90;8.33;;;8.50;99.90;;;;;;4938122;29;20175;-86
2020/12/18 03:37:18;;;;;;;34.40;8.60;;;8.50;99.90;;;;;;4938475;29;20235;-86
2020/12/18 03:39:43;;;;;;;22.73;7.20;;;8.50;99.90;;;;;;4921402;29;20173;-86
2020/12/18 03:42:09;;;;;;;24.07;7.97;;;8.30;99.90;;;;;;4921174;29;20663;-88
2020/12/18 03:44:34;;;;;;;23.23;7.87;;;8.40;99.90;;;;;;4921033;29;20188;-87
2020/12/18 03:47:03;;;;;;;26.50;7.80;;;8.40;99.90;;;;;;4920930;29;20213;-87
2020/12/18 03:49:29;;;;;;;25.70;7.97;;;8.40;99.90;;;;;;4921168;29;20177;-87
2020/12/18 03:51:54;;;;;;;27.17;8.03;;;8.50;99.90;;;;;;4921103;29;20212;-86
2020/12/18 03:54:23;;;;;;;23.10;7.03;;;8.50;99.90;;;;;;4921049;29;20172;-85
2020/12/18 03:56:48;;;;;;;25.67;7.67;;;8.60;99.90;;;;;;4938333;29;20180;-86
2020/12/18 03:59:14;;;;;;;33.30;8.03;;;8.60;99.90;;;;;;4920597;29;20568;-87
2020/12/18 04:01:40;;;;;;;17.50;8.40;;;8.60;99.90;;;;;;4938741;29;20180;-88
2020/12/18 04:04:05;;;;;;;27.53;8.57;;;8.60;99.90;;;;;;4921163;29;20628;-87
2020/12/18 04:06:31;;;;;;;23.73;8.90;;;8.60;99.90;;;;;;4920464;29;20716;-87
2020/12/18 04:08:56;;;;;;;24.87;9.13;;;8.70;99.90;;;;;;4937687;29;20177;-87
2020/12/18 04:11:22;;;;;;;26.30;10.37;;;8.70;99.90;;;;;;4920705;29;20172;-87
2020/12/18 04:13:47;;;;;;;31.00;12.47;;;8.70;99.90;;;;;;4920611;29;20180;-85
2020/12/18 04:16:17;;;;;;;27.60;11.47;;;8.60;99.90;;;;;;4920457;29;20575;-87
2020/12/18 04:18:43;;;;;;;30.10;12.93;;;8.70;99.90;;;;;;4920454;29;20220;-87
2020/12/18 04:21:08;;;;;;;32.50;13.53;;;8.70;99.90;;;;;;4920543;29;20160;-87
2020/12/18 04:23:36;;;;;;;28.60;13.57;;;8.70;99.90;;;;;;4920374;29;20173;-87
2020/12/18 04:26:01;;;;;;;36.43;15.03;;;8.80;99.90;;;;;;4920331;29;20256;-87
2020/12/18 04:28:27;;;;;;;38.00;15.30;;;8.80;99.90;;;;;;4919999;29;20614;-87
2020/12/18 04:30:53;;;;;;;30.50;15.43;;;8.80;99.90;;;;;;4921208;29;20251;-87
2020/12/18 04:33:18;;;;;;;31.20;16.63;;;8.70;99.90;;;;;;4920906;29;20183;-87
2020/12/18 04:35:44;;;;;;;41.20;17.13;;;8.70;99.90;;;;;;4939053;29;20255;-85
2020/12/18 04:38:13;;;;;;;32.90;16.10;;;8.80;99.90;;;;;;4939066;29;20748;-87
2020/12/18 04:40:40;;;;;;;39.07;16.33;;;8.80;99.90;;;;;;4939135;29;20168;-85
2020/12/18 04:43:07;;;;;;;37.13;17.57;;;8.80;99.90;;;;;;4939122;29;20160;-88
2020/12/18 04:45:32;;;;;;;31.60;15.63;;;8.80;99.90;;;;;;4939060;29;20192;-87
2020/12/18 04:48:00;;;;;;;30.80;16.57;;;8.80;99.90;;;;;;4938750;29;20698;-86
2020/12/18 04:50:26;;;;;;;31.23;15.00;;;8.90;99.90;;;;;;4956265;29;20172;-87
2020/12/18 04:52:56;;;;;;;36.85;19.20;;;8.90;99.90;;;;;;4938334;29;20437;-85
2020/12/18 04:55:27;;;;;;;36.00;16.60;;;9.00;99.90;;;;;;4938922;29;20707;-87
2020/12/18 04:57:53;;;;;;;30.10;14.80;;;9.00;99.90;;;;;;4938855;29;20203;-85
2020/12/18 05:00:19;;;;;;;37.77;14.83;;;9.00;99.90;;;;;;4937592;29;20190;-88
2020/12/18 05:02:46;;;;;;;30.25;16.05;;;9.10;99.90;;;;;;4937440;29;20435;-87
2020/12/18 05:05:12;;;;;;;34.63;14.67;;;9.10;99.90;;;;;;4922433;29;20632;-87
2020/12/18 05:07:37;;;;;;;29.87;12.70;;;9.20;99.90;;;;;;4938814;29;20642;-87
2020/12/18 05:10:09;;;;;;;27.95;14.52;;;9.20;99.90;;;;;;4938540;29;20432;-87
2020/12/18 05:12:36;;;;;;;27.40;12.70;;;9.20;99.90;;;;;;4938328;29;20179;-84
2020/12/18 05:15:06;;;;;;;18.73;10.60;;;9.10;99.90;;;;;;4938806;29;20187;-87
2020/12/18 05:17:32;;;;;;;19.83;8.33;;;9.10;99.90;;;;;;4938531;29;20234;-87
2020/12/18 05:19:59;;;;;;;25.67;9.67;;;9.20;99.90;;;;;;4955987;29;20243;-87
2020/12/18 05:22:25;;;;;;;22.27;9.33;;;9.20;99.90;;;;;;4938556;29;20258;-87
2020/12/18 05:24:53;;;;;;;23.87;8.60;;;9.20;99.90;;;;;;4955704;29;20308;-87
2020/12/18 05:27:21;;;;;;;16.77;7.67;;;9.20;99.90;;;;;;4938694;29;20172;-87
2020/12/18 05:29:46;;;;;;;16.70;7.83;;;9.30;99.90;;;;;;4938719;29;20167;-86
2020/12/18 05:32:13;;;;;;;21.90;7.93;;;9.30;99.90;;;;;;4922638;29;20181;-87
2020/12/18 05:34:40;;;;;;;11.83;7.47;;;9.30;99.90;;;;;;4919584;29;20193;-87
2020/12/18 05:37:05;;;;;;;18.90;7.37;;;9.40;99.90;;;;;;4919454;29;20189;-87
2020/12/18 05:39:33;;;;;;;12.10;5.87;;;9.40;99.90;;;;;;4919322;29;20180;-87
2020/12/18 05:42:01;;;;;;;10.53;6.07;;;9.40;99.90;;;;;;4919595;29;20608;-87
2020/12/18 05:44:31;;;;;;;18.00;7.00;;;9.40;99.90;;;;;;4919172;29;20279;-86
2020/12/18 05:47:08;;;;;;;12.47;6.80;;;9.40;99.90;;;;;;4919188;29;20251;-87
2020/12/18 05:49:37;;;;;;;19.47;7.03;;;9.40;99.90;;;;;;4919393;29;20541;-87
2020/12/18 05:52:07;;;;;;;8.67;5.67;;;9.40;99.90;;;;;;4936424;29;20220;-87
2020/12/18 05:54:35;;;;;;;10.73;5.80;;;9.40;99.90;;;;;;4936308;29;20625;-86
2020/12/18 05:57:14;;;;;;;17.53;6.43;;;9.30;99.90;;;;;;4936288;29;20169;-85
2020/12/18 05:59:42;;;;;;;9.33;5.17;;;9.40;99.90;;;;;;4919161;29;20168;-88
2020/12/18 06:02:11;;;;;;;12.03;5.17;;;9.40;99.90;;;;;;4937359;29;20173;-86
2020/12/18 06:04:38;;;;;;;14.93;6.10;;;9.50;99.90;;;;;;4920612;29;20169;-86
2020/12/18 06:07:04;;;;;;;12.87;5.97;;;9.60;99.90;;;;;;4919120;29;20259;-86
2020/12/18 06:09:30;;;;;;;16.93;6.30;;;9.70;99.90;;;;;;4919168;29;20180;-87
2020/12/18 06:11:56;;;;;;;13.57;6.80;;;9.70;99.90;;;;;;4918806;29;20433;-86
2020/12/18 06:14:22;;;;;;;20.43;5.70;;;9.80;99.90;;;;;;4919046;29;20187;-87
2020/12/18 06:16:49;;;;;;;16.90;5.87;;;9.90;99.90;;;;;;4936848;29;20196;-87
2020/12/18 06:19:31;;;;;;;8.73;5.33;;;9.90;99.90;;;;;;4919356;29;20515;-87
2020/12/18 06:21:58;;;;;;;11.30;5.13;;;9.80;99.90;;;;;;4919258;29;20171;-87
2020/12/18 06:24:28;;;;;;;11.10;5.10;;;9.80;99.90;;;;;;4938184;29;20259;-87
2020/12/18 06:26:57;;;;;;;9.70;5.63;;;9.70;99.90;;;;;;4922184;29;20243;-87
2020/12/18 06:29:24;;;;;;;9.10;5.23;;;9.70;99.90;;;;;;4939364;29;20220;-86
2020/12/18 06:31:50;;;;;;;12.83;5.73;;;9.70;99.90;;;;;;4939324;29;20188;-87
2020/12/18 06:34:27;;;;;;;15.30;5.43;;;9.70;99.90;;;;;;4923170;29;20540;-87
2020/12/18 06:36:53;;;;;;;13.73;5.57;;;9.70;99.90;;;;;;4925659;29;20172;-87
2020/12/18 06:39:31;;;;;;;10.80;6.03;;;9.80;99.90;;;;;;4941536;29;20658;-87
2020/12/18 06:42:16;;;;;;;15.77;6.67;;;9.70;99.90;;;;;;4941753;29;20275;-87
2020/12/18 06:44:47;;;;;;;19.73;6.13;;;9.60;99.90;;;;;;4941792;29;20262;-88
2020/12/18 06:47:18;;;;;;;16.70;6.00;;;9.70;99.90;;;;;;4941398;29;20223;-88
2020/12/18 06:49:56;;;;;;;16.53;5.83;;;9.60;99.90;;;;;;4941398;29;20176;-89
2020/12/18 06:52:47;;;;;;;15.77;5.80;;;9.80;99.90;;;;;;4941966;29;20180;-88
2020/12/18 06:55:26;;;;;;;13.55;7.10;;;9.70;99.90;;;;;;4958931;29;20431;-87
2020/12/18 06:58:09;;;;;;;12.27;6.77;;;9.70;99.90;;;;;;4941477;29;20215;-86
2020/12/18 07:00:48;;;;;;;15.23;6.73;;;9.70;99.90;;;;;;4941194;29;20226;-87
2020/12/18 07:03:43;;;;;;;18.07;7.53;;;9.70;99.90;;;;;;4957904;29;20168;-87
2020/12/18 07:06:20;;;;;;;12.47;6.57;;;9.80;99.90;;;;;;4921881;29;20172;-87
2020/12/18 07:08:47;;;;;;;14.27;6.90;;;9.90;99.90;;;;;;4938829;29;20243;-87
2020/12/18 07:11:14;;;;;;;17.97;7.37;;;9.80;99.90;;;;;;4938596;29;20168;-87
2020/12/18 07:13:42;;;;;;;17.07;6.73;;;9.90;99.90;;;;;;4921950;29;20169;-87
2020/12/18 07:16:12;;;;;;;11.47;6.40;;;9.80;99.90;;;;;;4938553;29;20161;-87
2020/12/18 07:18:42;;;;;;;14.87;6.67;;;9.80;99.90;;;;;;4937362;29;20200;-87
2020/12/18 07:21:11;;;;;;;10.67;7.10;;;9.80;99.90;;;;;;4937209;29;20640;-87
2020/12/18 07:23:48;;;;;;;10.20;7.17;;;9.80;99.90;;;;;;4937265;29;20173;-87
2020/12/18 07:26:15;;;;;;;18.27;7.20;;;9.90;99.90;;;;;;4937196;29;20203;-87
2020/12/18 07:28:42;;;;;;;14.60;7.07;;;9.90;99.90;;;;;;4937112;29;20173;-87
2020/12/18 07:31:25;;;;;;;12.50;7.50;;;9.90;99.90;;;;;;4921419;29;20199;-87
2020/12/18 07:33:58;;;;;;;15.93;7.63;;;9.90;99.90;;;;;;4944078;28;20164;-88
2020/12/18 07:36:27;;;;;;;14.50;6.70;;;9.80;99.90;;;;;;4940360;29;20254;-87
2020/12/18 07:38:57;;;;;;;15.97;6.93;;;9.80;99.90;;;;;;4940119;29;20200;-87
2020/12/18 07:41:24;;;;;;;12.33;5.87;;;9.90;99.90;;;;;;4957434;29;20222;-88
2020/12/18 07:43:50;;;;;;;13.30;6.33;;;9.90;99.90;;;;;;4940246;29;20274;-87
2020/12/18 07:46:17;;;;;;;11.40;5.27;;;9.90;99.90;;;;;;4956981;29;20617;-87
2020/12/18 07:48:43;;;;;;;19.30;6.20;;;9.90;99.90;;;;;;4940108;29;20247;-87
2020/12/18 07:51:19;;;;;;;14.47;5.60;;;9.90;99.90;;;;;;4939788;29;20268;-87
2020/12/18 07:53:55;;;;;;;9.37;5.53;;;10.00;99.90;;;;;;4940135;29;20172;-87
2020/12/18 07:56:22;;;;;;;13.17;5.53;;;10.10;99.90;;;;;;4939916;29;20164;-87
2020/12/18 07:59:06;;;;;;;10.07;5.50;;;10.00;99.90;;;;;;4939648;29;20206;-87
2020/12/18 08:01:33;;;;;;;14.90;5.17;;;10.00;99.90;;;;;;4956761;29;20159;-87
2020/12/18 08:04:01;;;;;;;13.83;5.30;;;10.00;99.90;;;;;;4954870;29;20537;-87
2020/12/18 08:06:34;;;;;;;16.20;5.53;;;10.00;99.90;;;;;;4928646;29;20177;-87
2020/12/18 08:09:06;;;;;;;14.00;5.10;;;10.00;99.90;;;;;;4920689;29;20169;-86
2020/12/18 08:11:45;;;;;;;10.80;5.10;;;10.00;99.90;;;;;;4920550;29;20165;-87
2020/12/18 08:14:11;;;;;;;13.27;5.50;;;10.00;99.90;;;;;;4920866;29;20176;-87
2020/12/18 08:16:38;;;;;;;19.23;5.53;;;10.00;99.90;;;;;;4920267;29;20256;-87
2020/12/18 08:19:05;;;;;;;20.00;5.50;;;10.10;99.90;;;;;;4937124;29;20220;-86
2020/12/18 08:21:44;;;;;;;13.63;6.07;;;10.00;99.90;;;;;;4937204;29;20165;-87
2020/12/18 08:24:18;;;;;;;16.00;5.77;;;10.00;99.90;;;;;;4920309;29;20212;-87
2020/12/18 08:26:56;;;;;;;12.10;5.17;;;10.00;99.90;;;;;;4920229;29;20534;-87
2020/12/18 08:29:23;;;;;;;15.47;5.40;;;10.00;99.90;;;;;;4920785;29;20171;-87
2020/12/18 08:31:55;;;;;;;14.67;4.67;;;10.00;99.90;;;;;;4920088;29;20264;-87
2020/12/18 08:34:25;;;;;;;10.00;4.87;;;10.10;99.90;;;;;;4921208;29;20236;-87
2020/12/18 08:36:51;;;;;;;14.80;5.30;;;10.10;99.90;;;;;;4924805;29;20259;-86
2020/12/18 08:39:17;;;;;;;17.63;4.37;;;10.20;99.90;;;;;;4938820;29;20271;-86
2020/12/18 08:41:48;;;;;;;9.63;4.20;;;10.20;99.90;;;;;;4938987;29;20576;-87
2020/12/18 08:44:17;;;;;;;14.17;4.53;;;10.20;99.90;;;;;;4938991;29;20206;-87
2020/12/18 08:46:43;;;;;;;11.47;4.23;;;10.20;99.90;;;;;;4938197;29;20698;-87
2020/12/18 08:49:22;;;;;;;8.37;4.23;;;10.10;99.90;;;;;;4939025;29;20296;-87
2020/12/18 08:51:52;;;;;;;11.97;5.50;;;10.20;99.90;;;;;;4938850;29;20559;-87
2020/12/18 08:54:33;;;;;;;18.37;4.93;;;10.20;99.90;;;;;;4955916;29;20283;-86
2020/12/18 08:57:25;;;;;;;10.70;4.73;;;10.20;99.90;;;;;;4938780;29;20163;-86
2020/12/18 08:59:56;;;;;;;10.83;4.80;;;10.30;99.90;;;;;;4939066;29;20164;-86
2020/12/18 09:02:22;;;;;;;9.97;4.60;;;10.30;99.90;;;;;;4938495;29;20226;-86
2020/12/18 09:05:06;;;;;;;12.40;4.40;;;10.20;99.90;;;;;;4937045;29;20180;-87
2020/12/18 09:07:46;;;;;;;15.17;4.80;;;10.10;99.90;;;;;;4927291;29;20179;-86
2020/12/18 09:10:12;;;;;;;13.10;4.83;;;10.20;99.90;;;;;;4919826;29;20624;-87
2020/12/18 09:12:43;;;;;;;18.40;5.17;;;10.30;99.90;;;;;;4936767;29;20262;-87
2020/12/18 09:15:21;;;;;;;24.23;6.20;;;10.30;99.90;;;;;;4919742;29;20176;-87
2020/12/18 09:18:00;;;;;;;10.63;5.67;;;10.40;99.90;;;;;;4919557;29;20211;-86
2020/12/18 09:20:28;;;;;;;16.13;6.57;;;10.30;99.90;;;;;;4919726;29;20530;-87
2020/12/18 09:22:55;;;;;;;13.40;6.13;;;10.20;99.90;;;;;;4919568;29;20235;-87
2020/12/18 09:25:21;;;;;;;22.30;6.40;;;10.20;99.90;;;;;;4919561;29;20173;-88
2020/12/18 09:27:57;;;;;;;17.63;6.77;;;10.20;99.90;;;;;;4919432;29;20175;-87
2020/12/18 09:30:24;;;;;;;19.17;6.50;;;10.20;99.90;;;;;;4919760;29;20183;-87
2020/12/18 09:33:10;;;;;;;13.63;6.10;;;10.20;99.90;;;;;;4919759;29;20172;-87
2020/12/18 09:35:36;;;;;;;15.50;6.83;;;10.20;99.90;;;;;;4932955;29;20173;-87
2020/12/18 09:38:02;;;;;;;18.83;6.17;;;10.30;99.90;;;;;;4932746;29;20305;-86
2020/12/18 09:40:28;;;;;;;16.70;7.20;;;10.30;99.90;;;;;;4938779;29;20183;-87
2020/12/18 09:42:55;;;;;;;14.57;5.90;;;10.40;99.90;;;;;;4938496;29;20184;-87
2020/12/18 09:45:20;;;;;;;17.07;6.83;;;10.40;99.90;;;;;;4955595;29;20539;-88
2020/12/18 09:47:46;;;;;;;16.17;6.50;;;10.40;99.90;;;;;;4938385;29;20224;-89
2020/12/18 09:50:12;;;;;;;14.57;5.83;;;10.40;99.90;;;;;;4938296;29;20176;-86
2020/12/18 09:52:37;;;;;;;20.97;7.00;;;10.40;99.90;;;;;;4938310;29;20223;-87
2020/12/18 09:55:03;;;;;;;15.33;5.97;;;10.40;99.90;;;;;;4938310;29;20180;-88
2020/12/18 09:57:29;;;;;;;17.63;6.37;;;10.50;99.90;;;;;;4939485;29;20210;-87
2020/12/18 09:59:54;;;;;;;19.33;6.70;;;10.40;99.90;;;;;;4942038;29;20623;-87
2020/12/18 10:02:20;;;;;;;20.97;7.30;;;10.40;99.90;;;;;;4941759;29;20180;-85
2020/12/18 10:04:46;;;;;;;19.60;6.10;;;10.40;99.90;;;;;;4929290;29;20329;-81
2020/12/18 10:07:11;;;;;;;17.40;7.20;;;10.50;99.90;;;;;;4952913;29;20439;-81
2020/12/18 10:09:37;;;;;;;13.93;6.50;;;10.50;99.90;;;;;;4941124;29;20160;-81
2020/12/18 10:12:02;;;;;;;12.93;5.77;;;10.60;99.90;;;;;;4958267;29;20642;-81
2020/12/18 10:14:28;;;;;;;26.67;7.07;;;10.60;99.90;;;;;;4940955;29;20643;-81
2020/12/18 10:16:54;;;;;;;13.00;5.85;;;10.60;99.90;;;;;;4958301;29;20436;-81
2020/12/18 10:19:19;;;;;;;19.87;5.73;;;10.60;99.90;;;;;;4940832;29;20222;-79
2020/12/18 10:21:45;;;;;;;10.43;5.53;;;10.60;99.90;;;;;;4940847;29;20175;-79
2020/12/18 10:24:10;;;;;;;14.93;5.80;;;10.70;99.90;;;;;;4958053;29;20187;-79
2020/12/18 10:26:36;;;;;;;11.73;5.87;;;10.80;99.90;;;;;;4940623;29;20508;-79
2020/12/18 10:29:02;;;;;;;25.37;9.83;;;10.90;99.90;;;;;;4940672;29;20172;-79
2020/12/18 10:31:27;;;;;;;9.83;5.27;;;11.00;99.90;;;;;;4958150;29;20176;-79
2020/12/18 10:33:53;;;;;;;13.20;5.67;;;10.90;99.90;;;;;;4923098;29;20172;-79
2020/12/18 10:36:19;;;;;;;9.83;4.60;;;10.90;99.90;;;;;;4937825;29;20604;-80
2020/12/18 10:38:47;;;;;;;13.57;4.90;;;11.00;99.90;;;;;;4921747;29;20212;-79
2020/12/18 10:41:13;;;;;;;10.83;4.63;;;11.10;99.90;;;;;;4921463;29;20164;-80
2020/12/18 10:43:38;;;;;;;13.67;4.77;;;11.10;99.90;;;;;;4921333;29;20188;-80
2020/12/18 10:46:04;;;;;;;14.53;4.00;;;11.10;99.90;;;;;;4921266;29;20176;-80
2020/12/18 10:48:31;;;;;;;9.93;4.37;;;11.30;99.90;;;;;;4938486;29;20161;-79
2020/12/18 10:50:57;;;;;;;9.00;4.10;;;11.30;99.90;;;;;;4920986;29;20644;-80
2020/12/18 10:53:22;;;;;;;8.50;3.90;;;11.30;99.90;;;;;;4921351;29;20176;-80
2020/12/18 10:55:48;;;;;;;8.23;4.60;;;11.30;99.90;;;;;;4938838;29;20228;-80
2020/12/18 10:58:14;;;;;;;9.43;4.53;;;11.40;99.90;;;;;;4921361;29;20252;-79
2020/12/18 11:00:40;;;;;;;10.40;4.47;;;11.40;99.90;;;;;;4921395;29;20208;-79
2020/12/18 11:03:05;;;;;;;13.90;5.30;;;11.50;99.90;;;;;;4938377;29;20263;-79
2020/12/18 11:05:32;;;;;;;9.80;4.27;;;11.50;99.90;;;;;;4938313;29;20256;-79
2020/12/18 11:07:58;;;;;;;15.43;4.67;;;11.50;99.90;;;;;;4939442;29;20180;-80
2020/12/18 11:10:24;;;;;;;12.43;4.83;;;11.50;99.90;;;;;;4930539;28;20202;-80
2020/12/18 11:12:49;;;;;;;11.30;4.50;;;11.50;99.90;;;;;;4959276;28;20179;-80
2020/12/18 11:15:15;;;;;;;12.60;5.70;;;11.40;99.90;;;;;;4949376;29;20192;-80
2020/12/18 11:17:41;;;;;;;18.03;5.27;;;11.60;99.90;;;;;;4929374;29;20632;-80
2020/12/18 11:20:07;;;;;;;11.87;5.50;;;11.60;99.90;;;;;;4955941;28;20174;-79
2020/12/18 11:22:33;;;;;;;9.50;4.97;;;11.70;99.90;;;;;;4954417;29;20164;-79
2020/12/18 11:25:04;;;;;;;10.47;5.00;;;11.70;99.90;;;;;;4957101;29;20183;-81
2020/12/18 11:27:30;;;;;;;8.90;5.30;;;11.90;99.90;;;;;;4957648;29;20152;-81
2020/12/18 11:29:56;;;;;;;10.77;4.93;;;11.90;99.90;;;;;;4956985;29;20292;-80
2020/12/18 11:32:22;;;;;;;7.60;4.23;;;11.90;99.90;;;;;;4939523;29;20627;-80
2020/12/18 11:34:48;;;;;;;9.35;4.05;;;11.90;99.90;;;;;;4962009;28;20168;-81
2020/12/18 11:37:13;;;;;;;9.90;3.77;;;11.90;99.90;;;;;;4955900;28;20171;-80
2020/12/18 11:39:39;;;;;;;6.83;3.50;;;11.90;99.90;;;;;;4928598;29;20239;-80
2020/12/18 11:42:05;;;;;;;9.13;3.63;;;12.00;99.90;;;;;;4937598;29;20168;-80
2020/12/18 11:44:31;;;;;;;4.40;3.30;;;12.10;99.90;;;;;;4937506;29;20192;-81
2020/12/18 11:46:56;;;;;;;3.92;2.30;;;12.20;99.90;;;;;;4920623;29;20212;-82
2020/12/18 11:49:22;;;;;;;5.60;2.78;;;12.10;99.90;;;;;;4920422;29;20589;-83
2020/12/18 11:51:47;;;;;;;6.97;3.40;;;12.10;99.90;;;;;;4920339;29;20169;-83
2020/12/18 11:54:13;;;;;;;4.10;2.88;;;12.30;99.90;;;;;;4920531;29;20646;-82
2020/12/18 11:56:39;;;;;;;4.05;2.58;;;12.40;99.90;;;;;;4920227;29;20176;-82
2020/12/18 11:59:05;;;;;;;8.90;2.90;;;12.30;99.90;;;;;;4920028;29;20572;-82
2020/12/18 12:01:33;;;;;;;10.35;2.40;;;12.30;99.90;;;;;;4920096;29;20173;-82
2020/12/18 12:03:59;;;;;;;4.43;2.67;;;12.40;99.90;;;;;;4937082;29;20176;-82
2020/12/18 12:06:24;;;;;;;6.03;2.10;;;12.50;99.90;;;;;;4938764;29;20173;-82
2020/12/18 12:08:51;;;;;;;5.00;2.53;;;12.50;99.90;;;;;;4931425;29;20182;-82
2020/12/18 12:11:17;;;;;;;2.28;1.60;;;12.50;99.90;;;;;;4923058;29;20172;-81
2020/12/18 12:13:43;;;;;;;2.63;1.50;;;12.40;99.90;;;;;;4919944;29;20223;-82
2020/12/18 12:16:11;;;;;;;3.83;1.80;;;12.50;99.90;;;;;;4919919;29;20179;-82
2020/12/18 12:18:36;;;;;;;4.25;1.38;;;12.60;99.90;;;;;;4919701;29;20207;-82
2020/12/18 12:21:02;;;;;;;1.65;1.10;;;12.70;99.90;;;;;;4919020;29;20629;-82
2020/12/18 12:23:28;;;;;;;3.70;1.30;;;12.70;99.90;;;;;;4936830;29;20173;-82
2020/12/18 12:25:53;;;;;;;2.28;1.17;;;12.70;99.90;;;;;;4919642;29;20168;-83
2020/12/18 12:28:19;;;;;;;3.03;1.48;;;12.70;99.90;;;;;;4919695;29;20169;-82
2020/12/18 12:30:45;;;;;;;3.13;1.15;;;12.80;99.90;;;;;;4919704;29;20169;-82
2020/12/18 12:33:10;;;;;;;2.55;1.38;;;12.80;99.90;;;;;;4936990;29;20173;-82
2020/12/18 12:35:37;;;;;;;1.88;1.10;;;12.70;99.90;;;;;;4936929;29;20670;-81
2020/12/18 12:38:06;;;;;;;3.65;1.30;;;12.80;99.90;;;;;;4919869;29;20201;-82
2020/12/18 12:40:32;;;;;;;1.65;1.10;;;12.80;99.90;;;;;;4951857;29;20176;-82
2020/12/18 12:42:58;;;;;;;7.22;1.30;;;12.90;99.90;;;;;;4938546;29;20171;-81
2020/12/18 12:45:23;;;;;;;2.47;1.20;;;13.00;99.90;;;;;;4937827;29;20414;-81